createdAt,value
2023-09-06T00:01:22.304Z,18.09
2023-09-06T00:03:49.169Z,18.01
2023-09-06T00:07:04.492Z,17.97
2023-09-06T00:09:30.932Z,17.97
2023-09-06T00:11:57.306Z,17.94
2023-09-06T00:14:23.692Z,17.90
2023-09-06T00:16:50.103Z,17.86
2023-09-06T00:19:17.576Z,17.87
2023-09-06T00:21:44.743Z,17.88
2023-09-06T00:42:31.501Z,17.72
2023-09-06T00:44:57.997Z,17.69
2023-09-06T00:47:24.454Z,17.62
2023-09-06T00:49:50.854Z,17.53
2023-09-06T00:52:18.582Z,17.46
2023-09-06T00:54:45.024Z,17.35
2023-09-06T00:57:11.452Z,17.29
2023-09-06T00:59:39.568Z,17.12
2023-09-06T01:02:06.103Z,17.06
2023-09-06T01:04:33.512Z,17.03
2023-09-06T01:07:01.875Z,16.98
2023-09-06T01:09:30.536Z,16.92
2023-09-06T01:11:57.960Z,16.89
2023-09-06T01:14:24.421Z,16.83
2023-09-06T01:16:51.844Z,16.79
2023-09-06T01:19:19.510Z,16.71
2023-09-06T01:21:54.143Z,16.60
2023-09-06T01:24:22.323Z,16.62
2023-09-06T01:26:49.027Z,16.66
2023-09-06T01:29:15.419Z,16.70
2023-09-06T01:31:41.958Z,16.70
2023-09-06T01:34:08.440Z,16.79
2023-09-06T01:36:34.980Z,16.73
2023-09-06T01:39:01.419Z,16.81
2023-09-06T01:41:27.963Z,16.84
2023-09-06T01:43:55.362Z,16.83
2023-09-06T01:46:24.465Z,16.84
2023-09-06T01:48:51.163Z,16.79
2023-09-06T01:51:17.751Z,16.77
2023-09-06T01:53:44.300Z,16.77
2023-09-06T01:56:10.657Z,16.67
2023-09-06T01:58:38.356Z,16.54
2023-09-06T02:01:06.180Z,16.45
2023-09-06T02:03:35.523Z,16.39
2023-09-06T02:06:02.553Z,16.27
2023-09-06T02:08:29.173Z,16.24
2023-09-06T02:10:55.818Z,16.11
2023-09-06T02:13:22.364Z,16.02
2023-09-06T02:15:48.837Z,15.94
2023-09-06T02:18:18.770Z,15.96
2023-09-06T02:20:46.260Z,16.00
2023-09-06T02:23:12.649Z,16.05
2023-09-06T02:25:39.144Z,16.09
2023-09-06T02:28:06.594Z,16.03
2023-09-06T02:30:38.829Z,16.10
2023-09-06T02:33:06.229Z,16.01
2023-09-06T02:35:36.562Z,15.91
2023-09-06T02:38:03.082Z,15.98
2023-09-06T02:40:29.452Z,15.99
2023-09-06T02:42:55.858Z,15.93
2023-09-06T02:45:23.948Z,15.87
2023-09-06T02:47:52.179Z,15.84
2023-09-06T02:50:23.822Z,15.87
2023-09-06T02:52:54.339Z,16.00
2023-09-06T02:55:21.317Z,15.92
2023-09-06T02:57:47.770Z,15.87
2023-09-06T03:00:26.979Z,15.82
2023-09-06T03:03:06.295Z,15.78
2023-09-06T03:05:35.923Z,15.78
2023-09-06T03:08:02.287Z,15.71
2023-09-06T03:10:28.903Z,15.73
2023-09-06T03:12:59.004Z,15.76
2023-09-06T03:15:32.397Z,15.65
2023-09-06T03:17:59.693Z,15.59
2023-09-06T03:20:34.344Z,15.65
2023-09-06T03:23:18.453Z,15.65
2023-09-06T03:25:45.138Z,15.74
2023-09-06T03:28:11.577Z,15.69
2023-09-06T03:30:39.827Z,15.60
2023-09-06T03:33:07.382Z,15.60
2023-09-06T03:35:34.213Z,15.52
2023-09-06T03:38:00.863Z,15.48
2023-09-06T03:40:36.123Z,15.45
2023-09-06T03:43:16.644Z,15.53
2023-09-06T03:45:52.143Z,15.45
2023-09-06T03:48:21.611Z,15.50
2023-09-06T03:50:50.635Z,15.39
2023-09-06T03:53:17.231Z,15.43
2023-09-06T03:55:43.637Z,15.43
2023-09-06T03:58:11.925Z,15.36
2023-09-06T04:00:43.083Z,15.36
2023-09-06T04:03:09.703Z,15.30
2023-09-06T04:05:36.215Z,15.24
2023-09-06T04:08:08.005Z,15.22
2023-09-06T04:10:37.887Z,15.22
2023-09-06T04:13:05.945Z,15.29
2023-09-06T04:15:35.770Z,15.29
2023-09-06T04:18:04.744Z,15.31
2023-09-06T04:20:37.245Z,15.38
2023-09-06T04:23:06.406Z,15.35
2023-09-06T04:25:43.667Z,15.35
2023-09-06T04:28:12.030Z,15.35
2023-09-06T04:30:39.652Z,15.30
2023-09-06T04:33:06.961Z,15.34
2023-09-06T04:35:35.402Z,15.33
2023-09-06T04:38:03.801Z,15.31
2023-09-06T04:40:30.544Z,15.32
2023-09-06T04:42:57.212Z,15.22
2023-09-06T04:45:23.743Z,15.16
2023-09-06T04:47:50.355Z,15.14
2023-09-06T04:50:16.837Z,15.16
2023-09-06T04:52:52.097Z,15.15
2023-09-06T04:55:20.499Z,15.19
2023-09-06T04:57:50.652Z,15.17
2023-09-06T05:00:19.385Z,15.19
2023-09-06T05:02:47.459Z,15.21
2023-09-06T05:05:15.189Z,15.25
2023-09-06T05:07:46.305Z,15.27
2023-09-06T05:10:12.961Z,15.21
2023-09-06T05:12:39.892Z,15.30
2023-09-06T05:15:07.030Z,15.25
2023-09-06T05:17:33.727Z,15.21
2023-09-06T05:20:29.457Z,15.21
2023-09-06T05:22:57.339Z,15.20
2023-09-06T05:25:24.695Z,15.23
2023-09-06T05:27:55.192Z,15.23
2023-09-06T05:30:21.596Z,15.25
2023-09-06T05:32:48.194Z,15.33
2023-09-06T05:35:15.101Z,15.36
2023-09-06T05:37:41.519Z,15.40
2023-09-06T05:40:09.493Z,15.42
2023-09-06T05:42:36.341Z,15.48
2023-09-06T05:45:05.303Z,15.54
2023-09-06T05:47:31.959Z,15.59
2023-09-06T05:49:59.048Z,15.65
2023-09-06T05:52:25.965Z,15.73
2023-09-06T05:54:55.321Z,15.79
2023-09-06T05:57:22.943Z,15.82
2023-09-06T05:59:49.449Z,15.92
2023-09-06T06:02:16.146Z,16.03
2023-09-06T06:04:46.570Z,16.12
2023-09-06T06:07:14.349Z,16.19
2023-09-06T06:09:41.566Z,16.25
2023-09-06T06:12:08.480Z,16.33
2023-09-06T06:14:37.092Z,16.42
2023-09-06T06:17:07.494Z,16.46
2023-09-06T06:19:37.027Z,16.55
2023-09-06T06:22:04.786Z,16.61
2023-09-06T06:24:34.498Z,16.76
2023-09-06T06:27:00.858Z,16.87
2023-09-06T06:29:27.396Z,16.93
2023-09-06T06:31:54.010Z,17.05
2023-09-06T06:34:20.613Z,17.15
2023-09-06T06:36:47.795Z,17.25
2023-09-06T06:39:15.246Z,17.32
2023-09-06T06:41:43.046Z,17.38
2023-09-06T06:44:09.852Z,17.50
2023-09-06T06:46:38.827Z,17.66
2023-09-06T06:49:08.186Z,17.76
2023-09-06T06:51:38.283Z,17.88
2023-09-06T06:54:07.971Z,18.11
2023-09-06T06:56:35.440Z,18.14
2023-09-06T06:59:03.518Z,18.23
2023-09-06T07:01:32.031Z,18.44
2023-09-06T07:03:58.784Z,18.51
2023-09-06T07:06:25.952Z,18.63
2023-09-06T07:08:53.459Z,18.70
2023-09-06T07:11:20.693Z,18.80
2023-09-06T07:13:48.883Z,18.95
2023-09-06T07:16:19.720Z,19.01
2023-09-06T07:18:47.478Z,19.04
2023-09-06T07:21:17.281Z,19.20
2023-09-06T07:23:44.183Z,19.28
2023-09-06T07:26:11.034Z,19.37
2023-09-06T07:28:40.379Z,19.38
2023-09-06T07:31:07.780Z,19.42
2023-09-06T07:33:35.232Z,19.54
2023-09-06T07:36:01.815Z,19.53
2023-09-06T07:38:28.561Z,19.65
2023-09-06T07:41:02.470Z,19.80
2023-09-06T07:43:31.210Z,19.85
2023-09-06T07:45:58.966Z,19.98
2023-09-06T07:48:27.187Z,20.01
2023-09-06T07:50:54.241Z,20.14
2023-09-06T07:53:21.538Z,20.20
2023-09-06T07:55:48.453Z,20.35
2023-09-06T07:58:15.366Z,20.46
2023-09-06T08:00:42.817Z,20.62
2023-09-06T08:03:09.918Z,20.71
2023-09-06T08:05:36.550Z,21.02
2023-09-06T08:08:07.826Z,21.09
2023-09-06T08:10:34.767Z,21.04
2023-09-06T08:13:01.226Z,21.08
2023-09-06T08:15:28.627Z,21.15
2023-09-06T08:17:55.152Z,21.20
2023-09-06T08:20:21.812Z,21.35
2023-09-06T08:22:48.216Z,21.59
2023-09-06T08:25:15.901Z,21.73
2023-09-06T08:27:42.557Z,21.78
2023-09-06T08:30:14.330Z,21.97
2023-09-06T08:32:42.136Z,22.02
2023-09-06T08:35:09.617Z,22.35
2023-09-06T08:37:36.605Z,22.35
2023-09-06T08:40:06.746Z,22.28
2023-09-06T08:42:34.980Z,22.29
2023-09-06T08:45:06.231Z,22.49
2023-09-06T08:47:33.867Z,22.65
2023-09-06T08:50:00.693Z,22.86
2023-09-06T08:52:27.893Z,23.10
2023-09-06T08:54:54.373Z,23.14
2023-09-06T08:57:22.212Z,23.00
2023-09-06T08:59:49.990Z,23.31
2023-09-06T09:02:17.286Z,23.58
2023-09-06T09:04:44.168Z,23.75
2023-09-06T09:07:12.186Z,23.75
2023-09-06T09:10:02.516Z,23.86
2023-09-06T09:12:30.382Z,24.00
2023-09-06T09:15:00.648Z,24.16
2023-09-06T09:17:45.732Z,24.31
2023-09-06T09:20:21.362Z,24.24
2023-09-06T09:22:48.590Z,24.26
2023-09-06T09:25:17.809Z,24.30
2023-09-06T09:27:52.302Z,24.34
2023-09-06T09:30:19.432Z,24.38
2023-09-06T09:32:45.901Z,24.64
2023-09-06T09:35:13.910Z,24.74
2023-09-06T09:37:42.060Z,24.81
2023-09-06T09:40:22.285Z,24.94
2023-09-06T09:42:55.431Z,24.98
2023-09-06T09:45:26.327Z,25.16
2023-09-06T09:47:54.443Z,25.33
2023-09-06T09:50:26.868Z,25.53
2023-09-06T09:52:54.071Z,25.67
2023-09-06T09:55:28.391Z,25.67
2023-09-06T09:57:57.642Z,25.78
2023-09-06T10:00:31.257Z,25.85
2023-09-06T10:03:05.608Z,25.90
2023-09-06T10:05:33.027Z,26.14
2023-09-06T10:08:02.426Z,25.98
2023-09-06T10:10:29.973Z,26.18
2023-09-06T10:12:57.371Z,26.13
2023-09-06T10:15:24.932Z,26.13
2023-09-06T10:17:56.474Z,26.39
2023-09-06T10:20:28.055Z,26.36
2023-09-06T10:22:58.034Z,26.26
2023-09-06T10:25:27.684Z,26.48
2023-09-06T10:27:56.414Z,26.48
2023-09-06T10:30:35.855Z,26.46
2023-09-06T10:33:05.159Z,26.48
2023-09-06T10:35:32.432Z,26.62
2023-09-06T10:38:05.938Z,26.68
2023-09-06T10:40:54.669Z,26.96
2023-09-06T10:43:29.254Z,27.12
2023-09-06T10:45:56.878Z,27.10
2023-09-06T10:48:24.039Z,27.23
2023-09-06T10:51:14.066Z,27.37
2023-09-06T10:53:41.534Z,27.51
2023-09-06T10:56:08.290Z,27.71
2023-09-06T10:58:35.338Z,27.59
2023-09-06T11:01:14.829Z,27.67
2023-09-06T11:03:47.216Z,27.68
2023-09-06T11:06:14.096Z,27.87
2023-09-06T11:08:41.666Z,28.01
2023-09-06T11:11:10.769Z,28.15
2023-09-06T11:13:38.708Z,28.28
2023-09-06T11:16:06.683Z,28.49
2023-09-06T11:18:48.880Z,28.53
2023-09-06T11:21:24.042Z,28.54
2023-09-06T11:23:52.364Z,28.66
2023-09-06T11:26:20.350Z,28.65
2023-09-06T11:28:51.501Z,28.90
2023-09-06T11:31:26.488Z,28.94
2023-09-06T11:33:57.080Z,29.06
2023-09-06T11:36:31.455Z,29.04
2023-09-06T11:39:01.075Z,29.00
2023-09-06T11:41:27.696Z,29.21
2023-09-06T11:43:57.740Z,29.28
2023-09-06T11:46:25.785Z,29.39
2023-09-06T11:48:54.216Z,29.30
2023-09-06T11:51:23.139Z,29.27
2023-09-06T11:53:55.590Z,29.46
2023-09-06T11:56:32.179Z,29.52
2023-09-06T11:59:00.846Z,29.67
2023-09-06T12:01:27.860Z,29.76
2023-09-06T12:03:57.685Z,29.59
2023-09-06T12:06:27.507Z,29.73
2023-09-06T12:08:54.127Z,29.84
2023-09-06T12:11:25.847Z,29.76
2023-09-06T12:13:53.004Z,29.75
2023-09-06T12:16:20.967Z,29.92
2023-09-06T12:18:47.491Z,29.76
2023-09-06T12:21:15.931Z,29.65
2023-09-06T12:23:42.382Z,29.95
2023-09-06T12:26:08.790Z,29.98
2023-09-06T12:28:35.381Z,30.19
2023-09-06T12:31:16.672Z,30.18
2023-09-06T12:33:50.820Z,29.76
2023-09-06T12:36:18.985Z,30.01
2023-09-06T12:38:45.861Z,29.99
2023-09-06T12:41:13.343Z,29.74
2023-09-06T12:43:39.787Z,29.99
2023-09-06T12:46:07.812Z,30.01
2023-09-06T12:48:35.771Z,30.02
2023-09-06T12:51:02.781Z,30.18
2023-09-06T12:53:29.273Z,30.20
2023-09-06T12:55:55.695Z,30.15
2023-09-06T12:58:22.135Z,30.17
2023-09-06T13:00:48.547Z,30.20
2023-09-06T13:03:15.182Z,30.28
2023-09-06T13:05:42.538Z,30.19
2023-09-06T13:08:09.306Z,29.90
2023-09-06T13:10:35.784Z,29.71
2023-09-06T13:13:02.190Z,30.12
2023-09-06T13:15:28.533Z,30.05
2023-09-06T13:17:55.138Z,30.07
2023-09-06T13:20:21.633Z,30.05
2023-09-06T13:22:47.995Z,29.87
2023-09-06T13:25:15.689Z,29.92
2023-09-06T13:27:45.109Z,29.97
2023-09-06T13:30:11.703Z,29.78
2023-09-06T13:32:38.790Z,29.75
2023-09-06T13:35:06.187Z,29.80
2023-09-06T13:37:35.321Z,29.92
2023-09-06T13:40:01.697Z,29.94
2023-09-06T13:42:29.227Z,29.94
2023-09-06T13:44:56.220Z,29.74
2023-09-06T13:47:23.508Z,29.74
2023-09-06T13:49:51.416Z,29.74
2023-09-06T13:52:18.221Z,29.68
2023-09-06T13:54:44.711Z,30.03
2023-09-06T13:57:11.067Z,29.81
2023-09-06T13:59:37.500Z,29.80
2023-09-06T14:02:04.929Z,29.86
2023-09-06T14:04:31.685Z,29.87
2023-09-06T14:06:58.170Z,29.73
2023-09-06T14:09:24.640Z,29.65
2023-09-06T14:11:50.976Z,29.84
2023-09-06T14:14:18.756Z,29.89
2023-09-06T14:16:46.073Z,29.84
2023-09-06T14:19:12.827Z,29.68
2023-09-06T14:21:46.424Z,29.61
2023-09-06T14:24:15.250Z,29.59
2023-09-06T14:26:45.191Z,29.71
2023-09-06T14:29:13.409Z,29.62
2023-09-06T14:31:40.680Z,29.75
2023-09-06T14:34:07.315Z,29.61
2023-09-06T14:36:33.924Z,29.58
2023-09-06T14:39:02.329Z,29.54
2023-09-06T14:41:29.138Z,29.40
2023-09-06T14:43:56.572Z,29.30
2023-09-06T14:46:23.301Z,29.44
2023-09-06T14:48:49.912Z,29.40
2023-09-06T14:51:16.374Z,29.55
2023-09-06T14:53:42.831Z,29.51
2023-09-06T14:56:10.596Z,29.54
2023-09-06T14:58:37.099Z,29.51
2023-09-06T15:01:03.539Z,29.34
2023-09-06T15:03:30.623Z,29.42
2023-09-06T15:05:57.981Z,29.39
2023-09-06T15:08:24.355Z,29.28
2023-09-06T15:10:50.716Z,29.34
2023-09-06T15:13:17.107Z,29.22
2023-09-06T15:15:44.217Z,29.18
2023-09-06T15:18:11.114Z,29.18
2023-09-06T15:20:38.063Z,29.15
2023-09-06T15:23:04.644Z,29.13
2023-09-06T15:25:31.451Z,29.07
2023-09-06T15:27:57.955Z,29.09
2023-09-06T15:30:24.685Z,29.03
2023-09-06T15:32:51.305Z,29.02
2023-09-06T15:35:18.090Z,29.02
2023-09-06T15:38:05.816Z,28.96
2023-09-06T15:40:34.075Z,28.93
2023-09-06T15:43:00.761Z,28.91
2023-09-06T15:45:27.201Z,28.90
2023-09-06T15:47:54.359Z,28.86
2023-09-06T15:50:21.032Z,28.83
2023-09-06T15:52:48.690Z,28.91
2023-09-06T15:55:16.056Z,28.82
2023-09-06T15:57:43.980Z,28.84
2023-09-06T16:02:41.321Z,28.83
2023-09-06T16:05:09.433Z,28.69
2023-09-06T16:07:36.663Z,28.69
2023-09-06T16:10:04.026Z,28.59
2023-09-06T16:12:32.362Z,28.59
2023-09-06T16:14:59.984Z,28.51
2023-09-06T16:17:27.910Z,28.55
2023-09-06T16:19:54.410Z,28.50
2023-09-06T16:22:22.609Z,28.45
2023-09-06T16:24:50.168Z,28.43
2023-09-06T16:27:17.003Z,28.37
2023-09-06T16:29:44.772Z,28.36
2023-09-06T16:32:13.819Z,28.28
2023-09-06T16:34:40.305Z,28.27
2023-09-06T16:37:06.693Z,28.23
2023-09-06T16:39:34.617Z,28.18
2023-09-06T16:42:01.527Z,28.08
2023-09-06T16:44:31.349Z,28.06
2023-09-06T16:46:59.667Z,28.07
2023-09-06T16:49:27.032Z,27.99
2023-09-06T16:51:54.537Z,27.96
2023-09-06T16:54:21.135Z,27.82
2023-09-06T16:56:48.788Z,27.77
2023-09-06T16:59:16.485Z,27.70
2023-09-06T17:01:43.609Z,27.67
2023-09-06T17:04:10.124Z,27.65
2023-09-06T17:06:36.592Z,27.58
2023-09-06T17:09:09.288Z,27.52
2023-09-06T17:11:45.434Z,27.48
2023-09-06T17:14:12.412Z,27.43
2023-09-06T17:16:39.613Z,27.36
2023-09-06T17:19:36.963Z,27.27
2023-09-06T17:22:03.402Z,27.21
2023-09-06T17:24:30.912Z,27.13
2023-09-06T17:26:57.287Z,26.97
2023-09-06T17:29:23.686Z,26.92
2023-09-06T17:31:50.263Z,26.89
2023-09-06T17:34:17.267Z,26.83
2023-09-06T17:36:43.665Z,26.77
2023-09-06T17:39:10.676Z,26.65
2023-09-06T17:41:37.201Z,26.54
2023-09-06T17:44:06.906Z,26.52
2023-09-06T17:46:36.637Z,26.32
2023-09-06T17:49:06.704Z,26.26
2023-09-06T17:51:33.598Z,26.08
2023-09-06T17:54:00.901Z,26.00
2023-09-06T17:56:30.191Z,25.81
2023-09-06T17:58:57.674Z,25.68
2023-09-06T18:01:24.619Z,25.51
2023-09-06T18:03:58.572Z,25.50
2023-09-06T18:06:26.921Z,25.48
2023-09-06T18:08:59.283Z,25.27
2023-09-06T18:11:26.212Z,25.14
2023-09-06T18:13:53.050Z,24.98
2023-09-06T18:16:20.113Z,24.87
2023-09-06T18:18:46.686Z,24.72
2023-09-06T18:21:15.050Z,24.59
2023-09-06T18:23:43.995Z,24.46
2023-09-06T18:26:11.403Z,24.30
2023-09-06T18:28:37.869Z,24.11
2023-09-06T18:31:04.499Z,24.04
2023-09-06T18:33:31.228Z,24.03
2023-09-06T18:35:57.750Z,24.00
2023-09-06T18:38:24.974Z,23.95
2023-09-06T18:41:02.070Z,23.91
2023-09-06T18:43:28.626Z,23.84
2023-09-06T18:45:55.038Z,23.83
2023-09-06T18:48:22.848Z,23.76
2023-09-06T18:50:50.941Z,23.71
2023-09-06T18:53:17.440Z,23.64
2023-09-06T18:55:47.298Z,23.56
2023-09-06T18:58:15.447Z,23.47
2023-09-06T19:00:42.690Z,23.41
2023-09-06T19:03:13.897Z,23.28
2023-09-06T19:05:41.691Z,23.24
2023-09-06T19:08:12.832Z,23.10
2023-09-06T19:10:40.932Z,22.97
2023-09-06T19:13:07.839Z,22.92
2023-09-06T19:15:34.305Z,22.79
2023-09-06T19:18:00.922Z,22.73
2023-09-06T19:20:27.293Z,22.64
2023-09-06T19:22:54.198Z,22.53
2023-09-06T19:25:25.050Z,22.49
2023-09-06T19:27:52.379Z,22.35
2023-09-06T19:30:19.028Z,22.26
2023-09-06T19:32:45.415Z,22.19
2023-09-06T19:35:11.888Z,22.12
2023-09-06T19:37:38.291Z,21.94
2023-09-06T19:40:05.304Z,21.88
2023-09-06T19:42:32.506Z,21.80
2023-09-06T19:44:58.938Z,21.77
2023-09-06T19:47:25.548Z,21.66
2023-09-06T19:49:52.061Z,21.59
2023-09-06T19:52:18.440Z,21.58
2023-09-06T19:54:44.952Z,21.52
2023-09-06T19:57:11.556Z,21.42
2023-09-06T19:59:38.045Z,21.35
2023-09-06T20:02:09.047Z,21.28
2023-09-06T20:04:35.940Z,21.21
2023-09-06T20:07:02.764Z,21.15
2023-09-06T20:09:31.380Z,21.08
2023-09-06T20:11:58.392Z,21.09
2023-09-06T20:14:28.451Z,21.04
2023-09-06T20:16:58.529Z,20.93
2023-09-06T20:19:25.382Z,20.83
2023-09-06T20:21:51.908Z,20.74
2023-09-06T20:24:18.390Z,20.69
2023-09-06T20:26:44.822Z,20.67
2023-09-06T20:29:11.547Z,20.58
2023-09-06T20:31:38.174Z,20.46
2023-09-06T20:34:05.106Z,20.46
2023-09-06T20:36:33.200Z,20.43
2023-09-06T20:38:59.618Z,20.32
2023-09-06T20:41:26.242Z,20.33
2023-09-06T20:43:52.641Z,20.27
2023-09-06T20:46:19.040Z,20.21
2023-09-06T20:48:46.991Z,20.18
2023-09-06T20:51:15.448Z,20.17
2023-09-06T20:53:44.338Z,20.15
2023-09-06T20:56:11.505Z,20.09
2023-09-06T20:58:38.929Z,20.08
2023-09-06T21:01:16.828Z,20.02
2023-09-06T21:03:45.199Z,19.99
2023-09-06T21:06:12.444Z,19.92
2023-09-06T21:08:39.778Z,19.88
2023-09-06T21:11:06.787Z,19.80
2023-09-06T21:13:34.184Z,19.76
2023-09-06T21:16:02.791Z,19.65
2023-09-06T21:18:30.855Z,19.45
2023-09-06T21:20:58.225Z,19.38
2023-09-06T21:23:24.774Z,19.39
2023-09-06T21:25:51.423Z,19.30
2023-09-06T21:28:17.957Z,19.25
2023-09-06T21:30:46.836Z,19.25
2023-09-06T21:33:13.617Z,19.19
2023-09-06T21:35:49.058Z,19.14
2023-09-06T21:38:15.433Z,19.12
2023-09-06T21:40:43.986Z,19.04
2023-09-06T21:43:18.399Z,18.98
2023-09-06T21:45:45.791Z,18.85
2023-09-06T21:48:12.559Z,18.75
2023-09-06T21:50:41.323Z,18.74
2023-09-06T21:53:08.250Z,18.67
2023-09-06T21:55:34.821Z,18.68
2023-09-06T21:58:09.708Z,18.67
2023-09-06T22:00:37.522Z,18.59
2023-09-06T22:03:04.488Z,18.52
2023-09-06T22:05:31.078Z,18.48
2023-09-06T22:07:57.536Z,18.42
2023-09-06T22:10:23.998Z,18.39
2023-09-06T22:12:50.541Z,18.35
2023-09-06T22:15:17.086Z,18.39
2023-09-06T22:17:43.806Z,18.29
2023-09-06T22:20:10.582Z,18.27
2023-09-06T22:22:37.316Z,18.29
2023-09-06T22:25:07.912Z,18.29
2023-09-06T22:27:35.410Z,18.22
2023-09-06T22:30:02.785Z,18.16
2023-09-06T22:32:29.590Z,18.13
2023-09-06T22:34:57.047Z,18.11
2023-09-06T22:37:24.608Z,18.12
2023-09-06T22:39:51.270Z,18.07
2023-09-06T22:42:17.867Z,18.04
2023-09-06T22:44:44.288Z,17.94
2023-09-06T22:47:10.840Z,17.91
2023-09-06T22:49:38.574Z,17.82
2023-09-06T22:52:06.950Z,17.79
2023-09-06T22:54:36.596Z,17.76
2023-09-06T22:57:04.293Z,17.70
2023-09-06T22:59:31.053Z,17.65
2023-09-06T23:01:57.473Z,17.54
2023-09-06T23:04:24.228Z,17.59
2023-09-06T23:06:50.629Z,17.57
2023-09-06T23:09:19.967Z,17.57
2023-09-06T23:11:51.056Z,17.55
2023-09-06T23:14:19.205Z,17.52
2023-09-06T23:16:49.100Z,17.47
2023-09-06T23:19:28.794Z,17.38
2023-09-06T23:21:59.797Z,17.36
2023-09-06T23:24:28.790Z,17.43
2023-09-06T23:27:00.155Z,17.41
2023-09-06T23:29:29.461Z,17.35
2023-09-06T23:31:59.659Z,17.31
2023-09-06T23:34:28.557Z,17.24
2023-09-06T23:36:57.188Z,17.20
2023-09-06T23:39:28.764Z,17.21
2023-09-06T23:41:56.373Z,17.18
2023-09-06T23:44:23.290Z,17.14
2023-09-06T23:46:50.531Z,17.05
2023-09-06T23:49:17.310Z,17.02
2023-09-06T23:51:43.982Z,16.98
2023-09-06T23:54:11.990Z,16.96
2023-09-06T23:56:38.468Z,16.92
2023-09-06T23:59:05.187Z,16.91
